sensor_id;sensor_type;location;lat;lon;timestamp;P1;durP1;ratioP1;P2;durP2;ratioP2
74658;SDS011;63186;51.204;6.536;2024-03-08T00:01:52;17.88;;;8.57;;
74658;SDS011;63186;51.204;6.536;2024-03-08T00:04:18;18.55;;;9.32;;
74658;SDS011;63186;51.204;6.536;2024-03-08T00:06:43;22.05;;;11.73;;
74658;SDS011;63186;51.204;6.536;2024-03-08T00:09:11;18.60;;;9.95;;
74658;SDS011;63186;51.204;6.536;2024-03-08T00:11:39;17.98;;;9.45;;
74658;SDS011;63186;51.204;6.536;2024-03-08T00:14:04;18.05;;;10.55;;
74658;SDS011;63186;51.204;6.536;2024-03-08T00:16:32;18.95;;;10.82;;
74658;SDS011;63186;51.204;6.536;2024-03-08T00:18:58;21.85;;;10.88;;
74658;SDS011;63186;51.204;6.536;2024-03-08T00:21:23;21.10;;;10.00;;
74658;SDS011;63186;51.204;6.536;2024-03-08T00:23:49;17.45;;;9.93;;
74658;SDS011;63186;51.204;6.536;2024-03-08T00:26:14;18.80;;;11.37;;
74658;SDS011;63186;51.204;6.536;2024-03-08T00:28:40;15.88;;;8.40;;
74658;SDS011;63186;51.204;6.536;2024-03-08T00:31:05;17.60;;;9.87;;
74658;SDS011;63186;51.204;6.536;2024-03-08T00:33:32;17.52;;;9.82;;
74658;SDS011;63186;51.204;6.536;2024-03-08T00:35:57;18.98;;;10.27;;
74658;SDS011;63186;51.204;6.536;2024-03-08T00:38:22;18.43;;;9.67;;
74658;SDS011;63186;51.204;6.536;2024-03-08T00:40:48;18.47;;;10.37;;
74658;SDS011;63186;51.204;6.536;2024-03-08T00:43:13;21.13;;;11.33;;
74658;SDS011;63186;51.204;6.536;2024-03-08T00:45:39;17.63;;;9.48;;
74658;SDS011;63186;51.204;6.536;2024-03-08T00:48:07;19.88;;;11.20;;
74658;SDS011;63186;51.204;6.536;2024-03-08T00:50:33;19.90;;;9.70;;
74658;SDS011;63186;51.204;6.536;2024-03-08T00:52:58;17.50;;;9.93;;
74658;SDS011;63186;51.204;6.536;2024-03-08T00:55:24;17.50;;;9.90;;
74658;SDS011;63186;51.204;6.536;2024-03-08T00:57:50;17.95;;;10.00;;
74658;SDS011;63186;51.204;6.536;2024-03-08T01:00:15;19.67;;;12.02;;
74658;SDS011;63186;51.204;6.536;2024-03-08T01:02:41;21.23;;;10.98;;
74658;SDS011;63186;51.204;6.536;2024-03-08T01:05:07;14.23;;;8.30;;
74658;SDS011;63186;51.204;6.536;2024-03-08T01:07:34;20.77;;;11.68;;
74658;SDS011;63186;51.204;6.536;2024-03-08T01:10:00;18.83;;;10.25;;
74658;SDS011;63186;51.204;6.536;2024-03-08T01:12:26;19.45;;;10.98;;
74658;SDS011;63186;51.204;6.536;2024-03-08T01:14:51;16.27;;;9.20;;
74658;SDS011;63186;51.204;6.536;2024-03-08T01:17:16;14.35;;;7.32;;
74658;SDS011;63186;51.204;6.536;2024-03-08T01:19:42;18.25;;;10.23;;
74658;SDS011;63186;51.204;6.536;2024-03-08T01:22:09;19.08;;;10.25;;
74658;SDS011;63186;51.204;6.536;2024-03-08T01:24:35;18.23;;;7.97;;
74658;SDS011;63186;51.204;6.536;2024-03-08T01:27:00;19.60;;;10.10;;
74658;SDS011;63186;51.204;6.536;2024-03-08T01:29:27;15.20;;;9.15;;
74658;SDS011;63186;51.204;6.536;2024-03-08T01:31:54;18.33;;;10.55;;
74658;SDS011;63186;51.204;6.536;2024-03-08T01:34:21;18.48;;;9.90;;
74658;SDS011;63186;51.204;6.536;2024-03-08T01:36:46;17.13;;;9.80;;
74658;SDS011;63186;51.204;6.536;2024-03-08T01:39:12;22.20;;;10.20;;
74658;SDS011;63186;51.204;6.536;2024-03-08T01:41:37;19.42;;;10.48;;
74658;SDS011;63186;51.204;6.536;2024-03-08T01:44:02;15.93;;;8.52;;
74658;SDS011;63186;51.204;6.536;2024-03-08T01:46:28;19.95;;;10.43;;
74658;SDS011;63186;51.204;6.536;2024-03-08T01:48:54;17.80;;;9.35;;
74658;SDS011;63186;51.204;6.536;2024-03-08T01:51:20;21.33;;;11.60;;
74658;SDS011;63186;51.204;6.536;2024-03-08T01:53:46;21.75;;;10.75;;
74658;SDS011;63186;51.204;6.536;2024-03-08T01:56:13;20.10;;;11.05;;
74658;SDS011;63186;51.204;6.536;2024-03-08T01:58:38;17.83;;;8.68;;
74658;SDS011;63186;51.204;6.536;2024-03-08T02:01:07;18.80;;;9.48;;
74658;SDS011;63186;51.204;6.536;2024-03-08T02:03:34;16.80;;;7.63;;
74658;SDS011;63186;51.204;6.536;2024-03-08T02:05:59;19.88;;;11.65;;
74658;SDS011;63186;51.204;6.536;2024-03-08T02:08:24;21.90;;;10.25;;
74658;SDS011;63186;51.204;6.536;2024-03-08T02:10:50;22.38;;;10.68;;
74658;SDS011;63186;51.204;6.536;2024-03-08T02:13:16;16.30;;;9.70;;
74658;SDS011;63186;51.204;6.536;2024-03-08T02:15:54;19.30;;;10.52;;
74658;SDS011;63186;51.204;6.536;2024-03-08T02:18:21;16.63;;;8.40;;
74658;SDS011;63186;51.204;6.536;2024-03-08T02:20:59;18.80;;;7.90;;
74658;SDS011;63186;51.204;6.536;2024-03-08T02:23:27;19.63;;;11.05;;
74658;SDS011;63186;51.204;6.536;2024-03-08T02:25:53;17.50;;;9.80;;
74658;SDS011;63186;51.204;6.536;2024-03-08T02:28:20;18.85;;;9.75;;
74658;SDS011;63186;51.204;6.536;2024-03-08T02:30:46;15.65;;;8.68;;
74658;SDS011;63186;51.204;6.536;2024-03-08T02:33:13;18.77;;;9.93;;
74658;SDS011;63186;51.204;6.536;2024-03-08T02:35:42;18.33;;;8.75;;
74658;SDS011;63186;51.204;6.536;2024-03-08T02:38:10;14.23;;;8.10;;
74658;SDS011;63186;51.204;6.536;2024-03-08T02:40:36;14.27;;;7.60;;
74658;SDS011;63186;51.204;6.536;2024-03-08T02:43:01;16.40;;;9.23;;
74658;SDS011;63186;51.204;6.536;2024-03-08T02:45:27;17.35;;;9.07;;
74658;SDS011;63186;51.204;6.536;2024-03-08T02:47:52;18.83;;;10.10;;
74658;SDS011;63186;51.204;6.536;2024-03-08T02:50:17;18.15;;;9.35;;
74658;SDS011;63186;51.204;6.536;2024-03-08T02:52:43;13.15;;;6.68;;
74658;SDS011;63186;51.204;6.536;2024-03-08T02:55:09;18.00;;;10.80;;
74658;SDS011;63186;51.204;6.536;2024-03-08T02:57:35;16.77;;;8.85;;
74658;SDS011;63186;51.204;6.536;2024-03-08T03:00:01;23.73;;;10.38;;
74658;SDS011;63186;51.204;6.536;2024-03-08T03:02:27;18.42;;;10.50;;
74658;SDS011;63186;51.204;6.536;2024-03-08T03:04:52;19.67;;;12.05;;
74658;SDS011;63186;51.204;6.536;2024-03-08T03:07:18;19.77;;;9.45;;
74658;SDS011;63186;51.204;6.536;2024-03-08T03:09:44;17.63;;;9.82;;
74658;SDS011;63186;51.204;6.536;2024-03-08T03:12:10;18.98;;;9.70;;
74658;SDS011;63186;51.204;6.536;2024-03-08T03:14:35;19.25;;;9.88;;
74658;SDS011;63186;51.204;6.536;2024-03-08T03:17:03;19.50;;;8.98;;
74658;SDS011;63186;51.204;6.536;2024-03-08T03:19:29;15.60;;;8.55;;
74658;SDS011;63186;51.204;6.536;2024-03-08T03:21:55;11.55;;;4.40;;
74658;SDS011;63186;51.204;6.536;2024-03-08T03:24:20;18.63;;;9.57;;
74658;SDS011;63186;51.204;6.536;2024-03-08T03:26:46;18.95;;;9.88;;
74658;SDS011;63186;51.204;6.536;2024-03-08T03:29:13;23.60;;;11.15;;
74658;SDS011;63186;51.204;6.536;2024-03-08T03:31:39;22.77;;;10.45;;
74658;SDS011;63186;51.204;6.536;2024-03-08T03:34:05;20.02;;;10.65;;
74658;SDS011;63186;51.204;6.536;2024-03-08T03:36:33;19.65;;;10.27;;
74658;SDS011;63186;51.204;6.536;2024-03-08T03:39:00;18.55;;;9.15;;
74658;SDS011;63186;51.204;6.536;2024-03-08T03:41:36;18.02;;;11.23;;
74658;SDS011;63186;51.204;6.536;2024-03-08T03:44:01;20.08;;;10.48;;
74658;SDS011;63186;51.204;6.536;2024-03-08T03:46:27;24.50;;;10.65;;
74658;SDS011;63186;51.204;6.536;2024-03-08T03:48:53;18.57;;;9.03;;
74658;SDS011;63186;51.204;6.536;2024-03-08T03:51:21;15.20;;;8.35;;
74658;SDS011;63186;51.204;6.536;2024-03-08T03:53:46;20.20;;;11.30;;
74658;SDS011;63186;51.204;6.536;2024-03-08T03:56:12;21.73;;;11.82;;
74658;SDS011;63186;51.204;6.536;2024-03-08T03:58:37;21.60;;;9.88;;
74658;SDS011;63186;51.204;6.536;2024-03-08T04:01:04;18.83;;;9.67;;
74658;SDS011;63186;51.204;6.536;2024-03-08T04:03:30;19.95;;;9.80;;
74658;SDS011;63186;51.204;6.536;2024-03-08T04:05:55;19.17;;;9.60;;
74658;SDS011;63186;51.204;6.536;2024-03-08T04:08:20;23.25;;;10.43;;
74658;SDS011;63186;51.204;6.536;2024-03-08T04:10:46;18.97;;;9.87;;
74658;SDS011;63186;51.204;6.536;2024-03-08T04:13:11;18.48;;;9.10;;
74658;SDS011;63186;51.204;6.536;2024-03-08T04:15:36;21.70;;;9.83;;
74658;SDS011;63186;51.204;6.536;2024-03-08T04:18:03;19.27;;;10.15;;
74658;SDS011;63186;51.204;6.536;2024-03-08T04:20:28;22.73;;;10.90;;
74658;SDS011;63186;51.204;6.536;2024-03-08T04:22:53;18.83;;;10.37;;
74658;SDS011;63186;51.204;6.536;2024-03-08T04:25:19;25.38;;;10.60;;
74658;SDS011;63186;51.204;6.536;2024-03-08T04:27:45;25.52;;;10.65;;
74658;SDS011;63186;51.204;6.536;2024-03-08T04:30:12;16.65;;;9.70;;
74658;SDS011;63186;51.204;6.536;2024-03-08T04:32:37;21.67;;;11.13;;
74658;SDS011;63186;51.204;6.536;2024-03-08T04:35:02;17.77;;;9.30;;
74658;SDS011;63186;51.204;6.536;2024-03-08T04:37:28;20.55;;;12.30;;
74658;SDS011;63186;51.204;6.536;2024-03-08T04:39:57;21.00;;;10.63;;
74658;SDS011;63186;51.204;6.536;2024-03-08T04:42:22;23.77;;;10.77;;
74658;SDS011;63186;51.204;6.536;2024-03-08T04:44:48;19.98;;;11.07;;
74658;SDS011;63186;51.204;6.536;2024-03-08T04:47:13;16.80;;;9.40;;
74658;SDS011;63186;51.204;6.536;2024-03-08T04:49:38;20.33;;;10.05;;
74658;SDS011;63186;51.204;6.536;2024-03-08T04:52:04;19.05;;;10.50;;
74658;SDS011;63186;51.204;6.536;2024-03-08T04:54:30;23.17;;;11.48;;
74658;SDS011;63186;51.204;6.536;2024-03-08T04:56:56;21.80;;;11.48;;
74658;SDS011;63186;51.204;6.536;2024-03-08T04:59:21;18.65;;;9.38;;
74658;SDS011;63186;51.204;6.536;2024-03-08T05:01:46;22.83;;;10.63;;
74658;SDS011;63186;51.204;6.536;2024-03-08T05:04:12;20.70;;;9.30;;
74658;SDS011;63186;51.204;6.536;2024-03-08T05:06:38;20.25;;;9.27;;
74658;SDS011;63186;51.204;6.536;2024-03-08T05:09:03;18.02;;;9.05;;
74658;SDS011;63186;51.204;6.536;2024-03-08T05:11:39;22.35;;;10.45;;
74658;SDS011;63186;51.204;6.536;2024-03-08T05:14:05;20.85;;;9.32;;
74658;SDS011;63186;51.204;6.536;2024-03-08T05:16:30;17.27;;;9.82;;
74658;SDS011;63186;51.204;6.536;2024-03-08T05:18:55;22.17;;;10.43;;
74658;SDS011;63186;51.204;6.536;2024-03-08T05:21:22;19.45;;;10.07;;
74658;SDS011;63186;51.204;6.536;2024-03-08T05:23:47;18.38;;;10.10;;
74658;SDS011;63186;51.204;6.536;2024-03-08T05:26:12;22.83;;;11.20;;
74658;SDS011;63186;51.204;6.536;2024-03-08T05:28:39;16.38;;;8.80;;
74658;SDS011;63186;51.204;6.536;2024-03-08T05:31:04;18.65;;;9.23;;
74658;SDS011;63186;51.204;6.536;2024-03-08T05:33:30;16.23;;;9.07;;
74658;SDS011;63186;51.204;6.536;2024-03-08T05:35:55;17.63;;;9.32;;
74658;SDS011;63186;51.204;6.536;2024-03-08T05:38:20;21.65;;;10.73;;
74658;SDS011;63186;51.204;6.536;2024-03-08T05:40:46;18.67;;;10.00;;
74658;SDS011;63186;51.204;6.536;2024-03-08T05:43:11;18.92;;;9.05;;
74658;SDS011;63186;51.204;6.536;2024-03-08T05:45:37;18.10;;;9.57;;
74658;SDS011;63186;51.204;6.536;2024-03-08T05:48:02;19.08;;;9.48;;
74658;SDS011;63186;51.204;6.536;2024-03-08T05:50:28;18.85;;;9.30;;
74658;SDS011;63186;51.204;6.536;2024-03-08T05:52:53;15.50;;;8.30;;
74658;SDS011;63186;51.204;6.536;2024-03-08T05:55:19;21.38;;;9.82;;
74658;SDS011;63186;51.204;6.536;2024-03-08T05:57:44;18.50;;;9.65;;
74658;SDS011;63186;51.204;6.536;2024-03-08T06:00:10;21.13;;;9.40;;
74658;SDS011;63186;51.204;6.536;2024-03-08T06:02:40;17.35;;;8.40;;
74658;SDS011;63186;51.204;6.536;2024-03-08T06:05:08;17.85;;;9.55;;
74658;SDS011;63186;51.204;6.536;2024-03-08T06:07:34;19.15;;;10.07;;
74658;SDS011;63186;51.204;6.536;2024-03-08T06:09:59;21.47;;;10.00;;
74658;SDS011;63186;51.204;6.536;2024-03-08T06:12:25;22.88;;;11.02;;
74658;SDS011;63186;51.204;6.536;2024-03-08T06:14:53;18.40;;;9.23;;
74658;SDS011;63186;51.204;6.536;2024-03-08T06:17:19;15.73;;;8.30;;
74658;SDS011;63186;51.204;6.536;2024-03-08T06:19:44;21.60;;;10.33;;
74658;SDS011;63186;51.204;6.536;2024-03-08T06:22:11;18.85;;;9.60;;
74658;SDS011;63186;51.204;6.536;2024-03-08T06:24:36;21.02;;;10.25;;
74658;SDS011;63186;51.204;6.536;2024-03-08T06:27:03;18.50;;;9.25;;
74658;SDS011;63186;51.204;6.536;2024-03-08T06:29:28;20.42;;;9.73;;
74658;SDS011;63186;51.204;6.536;2024-03-08T06:31:54;18.25;;;10.73;;
74658;SDS011;63186;51.204;6.536;2024-03-08T06:34:20;16.77;;;8.43;;
74658;SDS011;63186;51.204;6.536;2024-03-08T06:36:46;17.42;;;10.43;;
74658;SDS011;63186;51.204;6.536;2024-03-08T06:39:11;21.50;;;10.83;;
74658;SDS011;63186;51.204;6.536;2024-03-08T06:41:36;19.70;;;9.83;;
74658;SDS011;63186;51.204;6.536;2024-03-08T06:44:02;17.77;;;8.68;;
74658;SDS011;63186;51.204;6.536;2024-03-08T06:46:28;16.15;;;8.80;;
74658;SDS011;63186;51.204;6.536;2024-03-08T06:48:53;17.55;;;9.48;;
74658;SDS011;63186;51.204;6.536;2024-03-08T06:51:18;20.42;;;10.18;;
74658;SDS011;63186;51.204;6.536;2024-03-08T06:53:44;17.90;;;9.52;;
74658;SDS011;63186;51.204;6.536;2024-03-08T06:56:09;20.03;;;9.27;;
74658;SDS011;63186;51.204;6.536;2024-03-08T06:58:35;22.10;;;11.70;;
74658;SDS011;63186;51.204;6.536;2024-03-08T07:01:00;23.63;;;11.25;;
74658;SDS011;63186;51.204;6.536;2024-03-08T07:03:29;22.02;;;10.52;;
74658;SDS011;63186;51.204;6.536;2024-03-08T07:05:54;20.05;;;10.10;;
74658;SDS011;63186;51.204;6.536;2024-03-08T07:08:21;23.35;;;10.20;;
74658;SDS011;63186;51.204;6.536;2024-03-08T07:10:48;21.15;;;12.23;;
74658;SDS011;63186;51.204;6.536;2024-03-08T07:13:14;22.17;;;10.15;;
74658;SDS011;63186;51.204;6.536;2024-03-08T07:15:40;18.85;;;9.02;;
74658;SDS011;63186;51.204;6.536;2024-03-08T07:18:05;24.40;;;11.67;;
74658;SDS011;63186;51.204;6.536;2024-03-08T07:20:30;19.88;;;10.50;;
74658;SDS011;63186;51.204;6.536;2024-03-08T07:22:56;19.00;;;10.13;;
74658;SDS011;63186;51.204;6.536;2024-03-08T07:25:21;23.63;;;10.70;;
74658;SDS011;63186;51.204;6.536;2024-03-08T07:27:50;21.20;;;10.55;;
74658;SDS011;63186;51.204;6.536;2024-03-08T07:30:25;21.55;;;10.85;;
74658;SDS011;63186;51.204;6.536;2024-03-08T07:33:10;24.17;;;12.57;;
74658;SDS011;63186;51.204;6.536;2024-03-08T07:35:39;22.58;;;11.25;;
74658;SDS011;63186;51.204;6.536;2024-03-08T07:38:05;23.63;;;12.55;;
74658;SDS011;63186;51.204;6.536;2024-03-08T07:40:35;20.85;;;11.15;;
74658;SDS011;63186;51.204;6.536;2024-03-08T07:43:01;22.67;;;11.55;;
74658;SDS011;63186;51.204;6.536;2024-03-08T07:45:27;23.98;;;12.50;;
74658;SDS011;63186;51.204;6.536;2024-03-08T07:47:52;20.38;;;12.07;;
74658;SDS011;63186;51.204;6.536;2024-03-08T07:50:18;16.98;;;9.48;;
74658;SDS011;63186;51.204;6.536;2024-03-08T07:52:44;17.88;;;8.95;;
74658;SDS011;63186;51.204;6.536;2024-03-08T07:55:10;25.23;;;13.77;;
74658;SDS011;63186;51.204;6.536;2024-03-08T07:57:35;20.95;;;11.55;;
74658;SDS011;63186;51.204;6.536;2024-03-08T08:00:03;20.92;;;11.15;;
74658;SDS011;63186;51.204;6.536;2024-03-08T08:02:32;22.45;;;10.75;;
74658;SDS011;63186;51.204;6.536;2024-03-08T08:04:58;19.25;;;10.65;;
74658;SDS011;63186;51.204;6.536;2024-03-08T08:07:24;21.35;;;10.18;;
74658;SDS011;63186;51.204;6.536;2024-03-08T08:09:49;22.60;;;11.30;;
74658;SDS011;63186;51.204;6.536;2024-03-08T08:12:14;19.73;;;10.18;;
74658;SDS011;63186;51.204;6.536;2024-03-08T08:14:41;22.05;;;12.00;;
74658;SDS011;63186;51.204;6.536;2024-03-08T08:17:06;22.63;;;12.47;;
74658;SDS011;63186;51.204;6.536;2024-03-08T08:19:33;25.95;;;11.70;;
74658;SDS011;63186;51.204;6.536;2024-03-08T08:22:00;18.00;;;10.32;;
74658;SDS011;63186;51.204;6.536;2024-03-08T08:24:27;20.83;;;11.77;;
74658;SDS011;63186;51.204;6.536;2024-03-08T08:26:52;17.85;;;9.85;;
74658;SDS011;63186;51.204;6.536;2024-03-08T08:29:17;22.87;;;10.20;;
74658;SDS011;63186;51.204;6.536;2024-03-08T08:31:43;22.90;;;11.90;;
74658;SDS011;63186;51.204;6.536;2024-03-08T08:34:11;19.35;;;10.27;;
74658;SDS011;63186;51.204;6.536;2024-03-08T08:36:37;20.08;;;10.40;;
74658;SDS011;63186;51.204;6.536;2024-03-08T08:39:03;21.40;;;10.50;;
74658;SDS011;63186;51.204;6.536;2024-03-08T08:41:30;19.73;;;10.10;;
74658;SDS011;63186;51.204;6.536;2024-03-08T08:43:56;18.02;;;10.18;;
74658;SDS011;63186;51.204;6.536;2024-03-08T08:46:22;20.98;;;9.88;;
74658;SDS011;63186;51.204;6.536;2024-03-08T08:48:47;20.58;;;9.65;;
74658;SDS011;63186;51.204;6.536;2024-03-08T08:51:13;18.75;;;10.88;;
74658;SDS011;63186;51.204;6.536;2024-03-08T08:53:39;19.70;;;10.80;;
74658;SDS011;63186;51.204;6.536;2024-03-08T08:56:12;22.17;;;12.18;;
74658;SDS011;63186;51.204;6.536;2024-03-08T08:58:39;18.33;;;9.68;;
74658;SDS011;63186;51.204;6.536;2024-03-08T09:01:06;21.25;;;10.38;;
74658;SDS011;63186;51.204;6.536;2024-03-08T09:03:32;18.45;;;11.00;;
74658;SDS011;63186;51.204;6.536;2024-03-08T09:05:59;16.23;;;8.38;;
74658;SDS011;63186;51.204;6.536;2024-03-08T09:08:25;23.38;;;10.35;;
74658;SDS011;63186;51.204;6.536;2024-03-08T09:10:51;18.85;;;10.25;;
74658;SDS011;63186;51.204;6.536;2024-03-08T09:13:16;17.83;;;9.77;;
74658;SDS011;63186;51.204;6.536;2024-03-08T09:15:41;17.80;;;8.95;;
74658;SDS011;63186;51.204;6.536;2024-03-08T09:18:07;18.57;;;9.10;;
74658;SDS011;63186;51.204;6.536;2024-03-08T09:20:34;21.27;;;9.65;;
74658;SDS011;63186;51.204;6.536;2024-03-08T09:22:59;18.50;;;9.27;;
74658;SDS011;63186;51.204;6.536;2024-03-08T09:25:25;17.77;;;10.35;;
74658;SDS011;63186;51.204;6.536;2024-03-08T09:27:51;18.85;;;9.90;;
74658;SDS011;63186;51.204;6.536;2024-03-08T09:30:16;16.83;;;8.47;;
74658;SDS011;63186;51.204;6.536;2024-03-08T09:32:43;20.17;;;10.55;;
74658;SDS011;63186;51.204;6.536;2024-03-08T09:35:08;19.42;;;10.15;;
74658;SDS011;63186;51.204;6.536;2024-03-08T09:37:34;16.77;;;9.80;;
74658;SDS011;63186;51.204;6.536;2024-03-08T09:40:00;18.83;;;10.65;;
74658;SDS011;63186;51.204;6.536;2024-03-08T09:42:29;18.33;;;8.98;;
74658;SDS011;63186;51.204;6.536;2024-03-08T09:44:55;18.20;;;9.27;;
74658;SDS011;63186;51.204;6.536;2024-03-08T09:47:20;17.93;;;9.33;;
74658;SDS011;63186;51.204;6.536;2024-03-08T09:49:47;19.10;;;9.57;;
74658;SDS011;63186;51.204;6.536;2024-03-08T09:52:13;16.58;;;9.27;;
74658;SDS011;63186;51.204;6.536;2024-03-08T09:54:40;20.45;;;10.30;;
74658;SDS011;63186;51.204;6.536;2024-03-08T09:57:09;18.55;;;10.27;;
74658;SDS011;63186;51.204;6.536;2024-03-08T09:59:35;16.80;;;8.93;;
74658;SDS011;63186;51.204;6.536;2024-03-08T10:02:00;20.55;;;11.95;;
74658;SDS011;63186;51.204;6.536;2024-03-08T10:04:27;18.30;;;9.10;;
74658;SDS011;63186;51.204;6.536;2024-03-08T10:06:55;19.10;;;9.18;;
74658;SDS011;63186;51.204;6.536;2024-03-08T10:09:24;18.67;;;9.27;;
74658;SDS011;63186;51.204;6.536;2024-03-08T10:11:53;19.15;;;10.15;;
74658;SDS011;63186;51.204;6.536;2024-03-08T10:14:21;17.38;;;9.45;;
74658;SDS011;63186;51.204;6.536;2024-03-08T10:16:46;18.15;;;9.80;;
74658;SDS011;63186;51.204;6.536;2024-03-08T10:19:12;18.85;;;9.63;;
74658;SDS011;63186;51.204;6.536;2024-03-08T10:21:47;17.88;;;10.38;;
74658;SDS011;63186;51.204;6.536;2024-03-08T10:24:18;18.48;;;9.35;;
74658;SDS011;63186;51.204;6.536;2024-03-08T10:26:43;18.30;;;9.82;;
74658;SDS011;63186;51.204;6.536;2024-03-08T10:29:09;16.23;;;7.53;;
74658;SDS011;63186;51.204;6.536;2024-03-08T10:31:34;15.70;;;8.40;;
74658;SDS011;63186;51.204;6.536;2024-03-08T10:34:00;15.80;;;8.63;;
74658;SDS011;63186;51.204;6.536;2024-03-08T10:36:26;16.27;;;8.90;;
74658;SDS011;63186;51.204;6.536;2024-03-08T10:38:53;15.43;;;8.27;;
74658;SDS011;63186;51.204;6.536;2024-03-08T10:41:18;18.90;;;8.85;;
74658;SDS011;63186;51.204;6.536;2024-03-08T10:51:50;14.85;;;7.32;;
74658;SDS011;63186;51.204;6.536;2024-03-08T10:54:17;14.95;;;8.40;;
74658;SDS011;63186;51.204;6.536;2024-03-08T10:56:45;15.63;;;8.32;;
74658;SDS011;63186;51.204;6.536;2024-03-08T10:59:13;16.23;;;8.15;;
74658;SDS011;63186;51.204;6.536;2024-03-08T11:01:39;17.20;;;8.77;;
74658;SDS011;63186;51.204;6.536;2024-03-08T11:04:05;12.68;;;6.60;;
74658;SDS011;63186;51.204;6.536;2024-03-08T11:06:41;17.50;;;9.13;;
74658;SDS011;63186;51.204;6.536;2024-03-08T11:15:00;15.57;;;7.45;;
74658;SDS011;63186;51.204;6.536;2024-03-08T11:19:57;16.38;;;8.10;;
74658;SDS011;63186;51.204;6.536;2024-03-08T11:22:27;16.77;;;9.80;;
74658;SDS011;63186;51.204;6.536;2024-03-08T11:25:01;14.82;;;7.43;;
74658;SDS011;63186;51.204;6.536;2024-03-08T11:27:30;14.63;;;7.40;;
74658;SDS011;63186;51.204;6.536;2024-03-08T11:32:29;12.95;;;8.05;;
74658;SDS011;63186;51.204;6.536;2024-03-08T11:37:20;15.03;;;7.00;;
74658;SDS011;63186;51.204;6.536;2024-03-08T11:39:47;17.90;;;7.75;;
74658;SDS011;63186;51.204;6.536;2024-03-08T11:42:14;16.00;;;7.80;;
74658;SDS011;63186;51.204;6.536;2024-03-08T11:44:42;15.00;;;8.02;;
74658;SDS011;63186;51.204;6.536;2024-03-08T11:47:09;14.10;;;7.47;;
74658;SDS011;63186;51.204;6.536;2024-03-08T11:49:38;14.63;;;7.78;;
74658;SDS011;63186;51.204;6.536;2024-03-08T11:52:04;15.23;;;7.75;;
74658;SDS011;63186;51.204;6.536;2024-03-08T11:54:30;13.88;;;6.95;;
74658;SDS011;63186;51.204;6.536;2024-03-08T11:56:58;13.30;;;7.40;;
74658;SDS011;63186;51.204;6.536;2024-03-08T11:59:27;17.00;;;10.63;;
74658;SDS011;63186;51.204;6.536;2024-03-08T12:02:03;13.23;;;8.40;;
74658;SDS011;63186;51.204;6.536;2024-03-08T12:04:30;14.93;;;8.13;;
74658;SDS011;63186;51.204;6.536;2024-03-08T12:06:59;13.60;;;6.25;;
74658;SDS011;63186;51.204;6.536;2024-03-08T12:09:33;12.25;;;6.45;;
74658;SDS011;63186;51.204;6.536;2024-03-08T12:12:01;16.40;;;7.53;;
74658;SDS011;63186;51.204;6.536;2024-03-08T12:14:28;13.52;;;6.72;;
74658;SDS011;63186;51.204;6.536;2024-03-08T12:16:53;13.65;;;7.78;;
74658;SDS011;63186;51.204;6.536;2024-03-08T12:19:19;13.27;;;8.15;;
74658;SDS011;63186;51.204;6.536;2024-03-08T12:21:44;15.00;;;8.32;;
74658;SDS011;63186;51.204;6.536;2024-03-08T12:24:16;14.27;;;7.25;;
74658;SDS011;63186;51.204;6.536;2024-03-08T12:26:45;13.02;;;7.35;;
74658;SDS011;63186;51.204;6.536;2024-03-08T12:31:52;14.07;;;7.22;;
74658;SDS011;63186;51.204;6.536;2024-03-08T12:34:23;12.65;;;6.57;;
74658;SDS011;63186;51.204;6.536;2024-03-08T12:36:51;13.77;;;7.95;;
74658;SDS011;63186;51.204;6.536;2024-03-08T12:39:19;15.35;;;7.47;;
74658;SDS011;63186;51.204;6.536;2024-03-08T12:41:51;14.15;;;8.10;;
74658;SDS011;63186;51.204;6.536;2024-03-08T12:44:18;15.88;;;8.13;;
74658;SDS011;63186;51.204;6.536;2024-03-08T12:46:46;10.55;;;5.45;;
74658;SDS011;63186;51.204;6.536;2024-03-08T12:49:13;15.27;;;7.13;;
74658;SDS011;63186;51.204;6.536;2024-03-08T12:51:42;12.65;;;6.43;;
74658;SDS011;63186;51.204;6.536;2024-03-08T12:54:11;13.98;;;6.45;;
74658;SDS011;63186;51.204;6.536;2024-03-08T12:56:37;15.27;;;7.13;;
74658;SDS011;63186;51.204;6.536;2024-03-08T12:59:05;13.80;;;7.15;;
74658;SDS011;63186;51.204;6.536;2024-03-08T13:01:33;12.75;;;5.78;;
74658;SDS011;63186;51.204;6.536;2024-03-08T13:03:59;17.80;;;7.60;;
74658;SDS011;63186;51.204;6.536;2024-03-08T13:06:26;14.15;;;6.32;;
74658;SDS011;63186;51.204;6.536;2024-03-08T13:08:53;15.90;;;7.53;;
74658;SDS011;63186;51.204;6.536;2024-03-08T13:11:20;15.32;;;7.22;;
74658;SDS011;63186;51.204;6.536;2024-03-08T13:13:45;15.73;;;7.03;;
74658;SDS011;63186;51.204;6.536;2024-03-08T13:16:11;18.45;;;7.32;;
74658;SDS011;63186;51.204;6.536;2024-03-08T13:18:40;12.80;;;5.95;;
74658;SDS011;63186;51.204;6.536;2024-03-08T13:21:07;14.43;;;6.82;;
74658;SDS011;63186;51.204;6.536;2024-03-08T13:23:34;15.10;;;7.20;;
74658;SDS011;63186;51.204;6.536;2024-03-08T13:26:06;15.10;;;7.90;;
74658;SDS011;63186;51.204;6.536;2024-03-08T13:28:32;13.88;;;7.38;;
74658;SDS011;63186;51.204;6.536;2024-03-08T13:31:02;11.63;;;6.45;;
74658;SDS011;63186;51.204;6.536;2024-03-08T13:33:31;13.02;;;6.68;;
74658;SDS011;63186;51.204;6.536;2024-03-08T13:35:56;13.18;;;6.43;;
74658;SDS011;63186;51.204;6.536;2024-03-08T13:38:22;13.00;;;6.82;;
74658;SDS011;63186;51.204;6.536;2024-03-08T13:40:47;12.15;;;6.13;;
74658;SDS011;63186;51.204;6.536;2024-03-08T13:43:14;12.55;;;5.88;;
74658;SDS011;63186;51.204;6.536;2024-03-08T13:45:39;12.67;;;6.93;;
74658;SDS011;63186;51.204;6.536;2024-03-08T13:48:05;13.43;;;6.95;;
74658;SDS011;63186;51.204;6.536;2024-03-08T13:50:31;14.43;;;7.30;;
74658;SDS011;63186;51.204;6.536;2024-03-08T13:52:57;13.37;;;6.67;;
74658;SDS011;63186;51.204;6.536;2024-03-08T13:55:22;12.47;;;6.17;;
74658;SDS011;63186;51.204;6.536;2024-03-08T13:57:50;12.05;;;6.05;;
74658;SDS011;63186;51.204;6.536;2024-03-08T14:00:16;13.35;;;6.30;;
74658;SDS011;63186;51.204;6.536;2024-03-08T14:02:42;13.57;;;6.60;;
74658;SDS011;63186;51.204;6.536;2024-03-08T14:05:08;14.00;;;6.65;;
74658;SDS011;63186;51.204;6.536;2024-03-08T14:07:37;12.13;;;6.25;;
74658;SDS011;63186;51.204;6.536;2024-03-08T14:10:02;12.18;;;6.72;;
74658;SDS011;63186;51.204;6.536;2024-03-08T14:12:28;11.50;;;7.03;;
74658;SDS011;63186;51.204;6.536;2024-03-08T14:14:53;12.20;;;5.60;;
74658;SDS011;63186;51.204;6.536;2024-03-08T14:17:19;12.45;;;7.10;;
74658;SDS011;63186;51.204;6.536;2024-03-08T14:19:45;13.55;;;5.93;;
74658;SDS011;63186;51.204;6.536;2024-03-08T14:22:10;12.27;;;6.57;;
74658;SDS011;63186;51.204;6.536;2024-03-08T14:24:39;12.70;;;6.32;;
74658;SDS011;63186;51.204;6.536;2024-03-08T14:27:07;13.32;;;6.55;;
74658;SDS011;63186;51.204;6.536;2024-03-08T14:29:34;12.20;;;7.55;;
74658;SDS011;63186;51.204;6.536;2024-03-08T14:31:59;13.43;;;6.18;;
74658;SDS011;63186;51.204;6.536;2024-03-08T14:34:26;11.95;;;6.13;;
74658;SDS011;63186;51.204;6.536;2024-03-08T14:36:52;11.68;;;6.32;;
74658;SDS011;63186;51.204;6.536;2024-03-08T14:39:18;13.15;;;7.28;;
74658;SDS011;63186;51.204;6.536;2024-03-08T14:41:46;10.27;;;5.35;;
74658;SDS011;63186;51.204;6.536;2024-03-08T14:44:19;13.00;;;6.15;;
74658;SDS011;63186;51.204;6.536;2024-03-08T14:46:44;14.00;;;7.15;;
74658;SDS011;63186;51.204;6.536;2024-03-08T14:49:10;11.57;;;6.22;;